createdAt,value
2023-01-25T00:00:46.622Z,19.40
2023-01-25T00:03:15.683Z,21.10
2023-01-25T00:05:43.451Z,20.00
2023-01-25T00:08:11.334Z,21.40
2023-01-25T00:10:39.138Z,20.50
2023-01-25T00:13:06.879Z,19.52
2023-01-25T00:15:34.612Z,20.15
2023-01-25T00:18:02.316Z,21.27
2023-01-25T00:20:31.398Z,18.92
2023-01-25T00:22:59.769Z,22.08
2023-01-25T00:25:27.479Z,19.08
2023-01-25T00:27:55.134Z,21.05
2023-01-25T00:30:22.838Z,21.98
2023-01-25T00:32:57.918Z,21.90
2023-01-25T00:35:33.072Z,19.85
2023-01-25T00:38:03.852Z,21.17
2023-01-25T00:40:31.824Z,20.40
2023-01-25T00:43:00.859Z,20.55
2023-01-25T00:45:28.575Z,19.17
2023-01-25T00:47:57.274Z,20.83
2023-01-25T00:50:25.111Z,21.10
2023-01-25T00:52:54.150Z,19.20
2023-01-25T00:55:21.886Z,20.63
2023-01-25T00:57:49.491Z,18.67
2023-01-25T01:00:18.072Z,22.10
2023-01-25T01:02:45.810Z,20.60
2023-01-25T01:05:13.517Z,21.45
2023-01-25T01:07:41.201Z,18.95
2023-01-25T01:10:11.599Z,20.25
2023-01-25T01:12:39.257Z,18.90
2023-01-25T01:15:08.404Z,20.70
2023-01-25T01:17:36.252Z,20.30
2023-01-25T01:20:04.075Z,19.10
2023-01-25T01:22:31.749Z,20.00
2023-01-25T01:24:59.447Z,21.27
2023-01-25T01:27:28.562Z,18.55
2023-01-25T01:29:56.302Z,20.77
2023-01-25T01:32:24.294Z,19.40
2023-01-25T01:34:52.046Z,20.40
2023-01-25T01:37:19.711Z,19.20
2023-01-25T01:39:47.426Z,20.00
2023-01-25T01:42:15.109Z,21.17
2023-01-25T01:44:49.812Z,20.05
2023-01-25T01:47:23.137Z,19.65
2023-01-25T01:49:55.090Z,19.45
2023-01-25T01:52:29.007Z,20.23
2023-01-25T01:54:58.319Z,18.25
2023-01-25T01:57:31.123Z,21.27
2023-01-25T02:00:03.889Z,18.52
2023-01-25T02:02:31.709Z,18.50
2023-01-25T02:05:05.425Z,19.95
2023-01-25T02:07:35.647Z,18.90
2023-01-25T02:10:04.556Z,19.00
2023-01-25T02:12:33.044Z,17.55
2023-01-25T02:15:02.099Z,18.85
2023-01-25T02:17:31.731Z,19.20
2023-01-25T02:20:04.783Z,19.40
2023-01-25T02:22:41.381Z,19.30
2023-01-25T02:25:11.843Z,18.27
2023-01-25T02:27:43.408Z,18.40
2023-01-25T02:30:11.859Z,21.50
2023-01-25T02:32:39.707Z,20.15
2023-01-25T02:35:09.050Z,19.80
2023-01-25T02:37:37.433Z,19.70
2023-01-25T02:40:06.835Z,19.08
2023-01-25T02:42:36.141Z,18.83
2023-01-25T02:45:07.977Z,19.55
2023-01-25T02:47:35.960Z,19.50
2023-01-25T02:50:04.017Z,23.40
2023-01-25T02:52:31.732Z,20.88
2023-01-25T02:54:59.477Z,19.80
2023-01-25T02:57:27.243Z,18.48
2023-01-25T02:59:56.267Z,18.05
2023-01-25T03:02:24.083Z,19.25
2023-01-25T03:04:52.136Z,18.90
2023-01-25T03:07:19.800Z,19.55
2023-01-25T03:09:47.523Z,18.08
2023-01-25T03:12:15.259Z,18.13
2023-01-25T03:14:44.352Z,17.77
2023-01-25T03:17:13.571Z,17.98
2023-01-25T03:19:41.266Z,22.33
2023-01-25T03:22:09.741Z,19.63
2023-01-25T03:24:39.492Z,18.60
2023-01-25T03:27:14.248Z,17.13
2023-01-25T03:29:42.388Z,21.45
2023-01-25T03:32:10.496Z,18.40
2023-01-25T03:34:40.160Z,18.65
2023-01-25T03:37:07.826Z,18.17
2023-01-25T03:39:35.484Z,18.70
2023-01-25T03:42:03.465Z,18.48
2023-01-25T03:44:31.320Z,20.15
2023-01-25T03:46:59.109Z,17.42
2023-01-25T03:49:27.947Z,17.67
2023-01-25T03:51:57.941Z,15.98
2023-01-25T03:54:25.660Z,18.88
2023-01-25T03:56:53.316Z,18.05
2023-01-25T03:59:21.082Z,17.25
2023-01-25T04:01:48.834Z,17.95
2023-01-25T04:04:16.592Z,19.00
2023-01-25T04:06:44.472Z,19.38
2023-01-25T04:09:14.472Z,18.35
2023-01-25T04:11:42.568Z,16.95
2023-01-25T04:14:11.740Z,17.20
2023-01-25T04:16:39.501Z,18.15
2023-01-25T04:19:07.452Z,17.02
2023-01-25T04:21:35.196Z,17.58
2023-01-25T04:24:02.972Z,15.48
2023-01-25T04:26:32.138Z,16.95
2023-01-25T04:28:59.797Z,16.02
2023-01-25T04:31:27.641Z,15.30
2023-01-25T04:33:56.504Z,15.55
2023-01-25T04:36:24.205Z,16.38
2023-01-25T04:38:51.883Z,17.35
2023-01-25T04:41:19.534Z,15.40
2023-01-25T04:43:48.537Z,14.68
2023-01-25T04:46:16.293Z,13.38
2023-01-25T04:48:44.048Z,14.10
2023-01-25T04:51:11.954Z,12.80
2023-01-25T04:53:39.659Z,12.63
2023-01-25T04:56:08.296Z,14.25
2023-01-25T04:58:36.011Z,13.90
2023-01-25T05:01:05.589Z,12.07
2023-01-25T05:03:33.960Z,12.75
2023-01-25T05:06:01.586Z,15.63
2023-01-25T05:08:30.856Z,13.73
2023-01-25T05:10:58.618Z,13.50
2023-01-25T05:13:26.962Z,11.90
2023-01-25T05:15:57.443Z,12.80
2023-01-25T05:18:33.139Z,13.75
2023-01-25T05:21:27.077Z,14.00
2023-01-25T05:23:54.805Z,13.88
2023-01-25T05:26:40.139Z,13.07
2023-01-25T05:29:07.807Z,11.57
2023-01-25T05:31:35.512Z,12.30
2023-01-25T05:34:04.785Z,12.02
2023-01-25T05:36:32.619Z,13.15
2023-01-25T05:39:00.327Z,14.48
2023-01-25T05:41:28.086Z,18.10
2023-01-25T05:43:55.706Z,12.30
2023-01-25T05:46:23.464Z,11.43
2023-01-25T05:48:51.160Z,12.13
2023-01-25T05:51:20.261Z,11.40
2023-01-25T05:53:47.995Z,12.20
2023-01-25T05:56:15.652Z,12.18
2023-01-25T05:58:43.251Z,11.25
2023-01-25T06:01:11.721Z,12.48
2023-01-25T06:03:39.515Z,11.93
2023-01-25T06:06:07.875Z,14.15
2023-01-25T06:08:36.882Z,12.32
2023-01-25T06:11:08.002Z,13.18
2023-01-25T06:13:36.136Z,12.02
2023-01-25T06:16:04.360Z,12.63
2023-01-25T06:18:33.214Z,12.65
2023-01-25T06:21:01.421Z,12.43
2023-01-25T06:23:29.512Z,13.65
2023-01-25T06:26:00.840Z,11.82
2023-01-25T06:28:31.509Z,12.50
2023-01-25T06:31:06.153Z,12.95
2023-01-25T06:33:34.177Z,13.43
2023-01-25T06:36:03.045Z,14.63
2023-01-25T06:38:30.785Z,12.43
2023-01-25T06:41:02.446Z,13.00
2023-01-25T06:43:31.045Z,12.32
2023-01-25T06:45:59.796Z,13.13
2023-01-25T06:48:28.637Z,11.85
2023-01-25T06:50:58.321Z,12.40
2023-01-25T06:53:28.164Z,12.57
2023-01-25T06:56:01.909Z,11.73
2023-01-25T06:58:30.909Z,12.20
2023-01-25T07:01:02.948Z,13.30
2023-01-25T07:03:31.372Z,13.73
2023-01-25T07:06:00.815Z,12.68
2023-01-25T07:08:29.356Z,13.13
2023-01-25T07:10:58.566Z,11.80
2023-01-25T07:13:29.336Z,12.75
2023-01-25T07:15:58.696Z,13.25
2023-01-25T07:18:28.198Z,13.20
2023-01-25T07:20:55.865Z,13.52
2023-01-25T07:23:23.513Z,13.25
2023-01-25T07:25:52.110Z,12.90
2023-01-25T07:28:20.094Z,14.07
2023-01-25T07:30:49.629Z,11.95
2023-01-25T07:33:17.378Z,12.10
2023-01-25T07:35:45.135Z,12.88
2023-01-25T07:38:13.937Z,12.50
2023-01-25T07:40:42.998Z,13.43
2023-01-25T07:43:10.672Z,12.52
2023-01-25T07:45:38.362Z,11.02
2023-01-25T07:48:11.607Z,10.65
2023-01-25T07:50:39.557Z,11.85
2023-01-25T07:53:07.243Z,12.50
2023-01-25T07:55:35.188Z,11.10
2023-01-25T07:58:03.264Z,12.23
2023-01-25T08:00:31.272Z,11.60
2023-01-25T08:02:59.357Z,12.40
2023-01-25T08:05:28.491Z,11.35
2023-01-25T08:07:56.232Z,12.10
2023-01-25T08:10:24.026Z,11.43
2023-01-25T08:12:51.786Z,13.30
2023-01-25T08:15:19.582Z,13.60
2023-01-25T08:17:47.336Z,12.93
2023-01-25T08:20:14.996Z,12.88
2023-01-25T08:22:44.915Z,12.95
2023-01-25T08:25:12.676Z,13.73
2023-01-25T08:27:40.546Z,12.30
2023-01-25T08:30:09.755Z,14.05
2023-01-25T08:32:38.242Z,11.45
2023-01-25T08:35:07.408Z,11.75
2023-01-25T08:37:35.638Z,11.82
2023-01-25T08:40:05.759Z,12.88
2023-01-25T08:42:33.500Z,11.85
2023-01-25T08:45:02.703Z,12.27
2023-01-25T08:47:30.734Z,11.02
2023-01-25T08:49:58.423Z,12.73
2023-01-25T08:52:26.134Z,12.40
2023-01-25T08:54:53.989Z,12.02
2023-01-25T08:57:23.034Z,11.70
2023-01-25T08:59:50.716Z,11.65
2023-01-25T09:02:19.320Z,13.07
2023-01-25T09:04:47.095Z,13.75
2023-01-25T09:07:14.847Z,13.60
2023-01-25T09:09:42.591Z,14.57
2023-01-25T09:12:11.413Z,12.20
2023-01-25T09:14:40.766Z,13.18
2023-01-25T09:17:08.702Z,14.30
2023-01-25T09:19:37.339Z,12.32
2023-01-25T09:22:05.132Z,11.15
2023-01-25T09:24:36.990Z,12.23
2023-01-25T09:27:05.027Z,12.50
2023-01-25T09:29:32.752Z,11.70
2023-01-25T09:32:02.016Z,11.60
2023-01-25T09:34:29.812Z,10.77
2023-01-25T09:36:57.609Z,12.43
2023-01-25T09:39:25.700Z,12.20
2023-01-25T09:42:24.271Z,11.52
2023-01-25T09:45:13.962Z,11.57
2023-01-25T09:47:51.512Z,13.05
2023-01-25T09:50:34.219Z,12.90
2023-01-25T09:53:34.613Z,12.00
2023-01-25T09:56:11.556Z,12.15
2023-01-25T09:58:43.984Z,11.80
2023-01-25T10:01:37.458Z,11.75
2023-01-25T10:04:14.201Z,11.75
2023-01-25T10:06:55.210Z,11.57
2023-01-25T10:09:35.983Z,12.00
2023-01-25T10:12:12.899Z,12.23
2023-01-25T10:14:40.731Z,13.52
2023-01-25T10:17:15.384Z,14.60
2023-01-25T10:19:56.617Z,13.60
2023-01-25T10:22:29.694Z,13.38
2023-01-25T10:25:25.805Z,13.13
2023-01-25T10:28:07.156Z,13.15
2023-01-25T10:30:41.819Z,12.10
2023-01-25T10:33:14.573Z,12.13
2023-01-25T10:35:47.686Z,13.77
2023-01-25T10:38:21.168Z,13.43
2023-01-25T10:40:54.851Z,13.60
2023-01-25T10:43:23.767Z,13.13
2023-01-25T10:45:52.512Z,12.20
2023-01-25T10:48:23.231Z,12.05
2023-01-25T10:50:54.782Z,12.93
2023-01-25T10:53:35.614Z,12.60
2023-01-25T10:56:19.295Z,13.63
2023-01-25T10:58:48.972Z,12.32
2023-01-25T11:01:27.651Z,13.35
2023-01-25T11:03:55.561Z,12.45
2023-01-25T11:06:35.827Z,13.77
2023-01-25T11:09:24.020Z,14.88
2023-01-25T11:11:57.043Z,12.73
2023-01-25T11:14:27.541Z,13.32
2023-01-25T11:16:57.199Z,15.40
2023-01-25T11:19:34.699Z,13.88
2023-01-25T11:22:04.944Z,14.35
2023-01-25T11:24:34.710Z,13.45
2023-01-25T11:27:31.413Z,13.40
2023-01-25T11:30:11.377Z,14.25
2023-01-25T11:32:40.877Z,12.85
2023-01-25T11:35:15.148Z,13.50
2023-01-25T11:37:58.551Z,13.75
2023-01-25T11:40:35.118Z,13.82
2023-01-25T11:43:17.954Z,14.13
2023-01-25T11:46:24.209Z,15.65
2023-01-25T11:49:04.989Z,14.25
2023-01-25T11:51:41.094Z,17.05
2023-01-25T11:54:30.942Z,15.43
2023-01-25T11:57:02.311Z,14.82
2023-01-25T11:59:48.352Z,17.30
2023-01-25T12:02:59.231Z,15.57
2023-01-25T12:05:40.174Z,14.93
2023-01-25T12:08:21.067Z,15.32
2023-01-25T12:10:57.250Z,16.35
2023-01-25T12:13:36.029Z,16.25
2023-01-25T12:16:32.814Z,16.25
2023-01-25T12:19:25.966Z,16.95
2023-01-25T12:22:11.721Z,17.35
2023-01-25T12:24:51.722Z,17.83
2023-01-25T12:27:35.225Z,16.38
2023-01-25T12:30:12.800Z,17.50
2023-01-25T12:32:50.060Z,18.35
2023-01-25T12:35:29.271Z,15.52
2023-01-25T12:38:01.767Z,15.95
2023-01-25T12:40:41.620Z,16.10
2023-01-25T12:43:15.633Z,16.80
2023-01-25T12:45:47.410Z,16.38
2023-01-25T12:48:22.149Z,17.50
2023-01-25T12:50:55.410Z,15.88
2023-01-25T12:53:27.884Z,15.55
2023-01-25T12:55:57.349Z,16.88
2023-01-25T12:58:37.886Z,15.38
2023-01-25T13:01:12.927Z,16.20
2023-01-25T13:03:56.755Z,17.25
2023-01-25T13:06:36.897Z,19.33
2023-01-25T13:09:12.393Z,18.75
2023-01-25T13:11:41.969Z,17.55
2023-01-25T13:14:37.883Z,16.90
2023-01-25T13:17:23.304Z,17.50
2023-01-25T13:19:53.579Z,16.30
2023-01-25T13:23:01.450Z,17.42
2023-01-25T13:25:29.154Z,17.80
2023-01-25T13:28:34.461Z,17.35
2023-01-25T13:31:02.202Z,19.88
2023-01-25T13:33:37.188Z,18.85
2023-01-25T13:36:45.333Z,16.98
2023-01-25T13:39:45.246Z,18.77
2023-01-25T13:42:24.342Z,16.92
2023-01-25T13:44:54.722Z,16.10
2023-01-25T13:47:25.089Z,16.52
2023-01-25T13:50:01.593Z,15.70
2023-01-25T13:52:32.365Z,16.65
2023-01-25T13:55:00.539Z,16.48
2023-01-25T13:57:30.196Z,15.95
2023-01-25T14:00:10.229Z,16.00
2023-01-25T14:02:39.987Z,17.05
2023-01-25T14:05:18.880Z,17.02
2023-01-25T14:07:50.077Z,15.95
2023-01-25T14:10:23.646Z,18.52
2023-01-25T14:12:52.147Z,16.67
2023-01-25T14:15:23.891Z,18.85
2023-01-25T14:18:15.061Z,16.40
2023-01-25T14:20:43.153Z,17.85
2023-01-25T14:23:27.347Z,18.42
2023-01-25T14:25:59.244Z,16.73
2023-01-25T14:28:29.197Z,18.95
2023-01-25T14:30:59.205Z,18.10
2023-01-25T14:33:30.078Z,17.65
2023-01-25T14:36:16.480Z,17.30
2023-01-25T14:38:53.747Z,15.27
2023-01-25T14:41:25.578Z,18.85
2023-01-25T14:43:56.168Z,18.55
2023-01-25T14:46:26.768Z,17.88
2023-01-25T14:49:08.313Z,18.55
2023-01-25T14:51:42.252Z,17.50
2023-01-25T14:54:17.942Z,17.02
2023-01-25T14:56:48.072Z,17.20
2023-01-25T14:59:36.751Z,19.85
2023-01-25T15:02:17.582Z,20.30
2023-01-25T15:04:54.521Z,18.77
2023-01-25T15:07:43.426Z,19.92
2023-01-25T15:10:21.568Z,19.30
2023-01-25T15:13:13.749Z,20.65
2023-01-25T15:15:53.518Z,20.40
2023-01-25T15:18:47.147Z,18.42
2023-01-25T15:21:16.297Z,16.65
2023-01-25T15:23:46.188Z,17.45
2023-01-25T15:26:20.499Z,19.90
2023-01-25T15:28:49.168Z,17.55
2023-01-25T15:31:19.503Z,18.55
2023-01-25T15:33:48.034Z,17.67
2023-01-25T15:36:17.662Z,18.13
2023-01-25T15:38:45.631Z,18.40
2023-01-25T15:41:13.871Z,19.05
2023-01-25T15:43:43.214Z,19.27
2023-01-25T15:46:17.446Z,18.30
2023-01-25T15:48:47.383Z,18.75
2023-01-25T15:51:15.397Z,18.40
2023-01-25T15:53:43.370Z,18.73
2023-01-25T15:56:15.185Z,19.80
2023-01-25T15:58:46.804Z,18.33
2023-01-25T16:01:15.071Z,19.00
2023-01-25T16:03:42.850Z,17.85
2023-01-25T16:06:29.674Z,18.27
2023-01-25T16:08:58.738Z,20.35
2023-01-25T16:11:26.680Z,19.05
2023-01-25T16:13:56.958Z,20.63
2023-01-25T16:16:26.030Z,20.65
2023-01-25T16:18:53.833Z,22.02
2023-01-25T16:21:21.557Z,23.08
2023-01-25T16:23:49.309Z,22.85
2023-01-25T16:26:20.913Z,22.27
2023-01-25T16:28:48.686Z,22.98
2023-01-25T16:31:31.232Z,22.45
2023-01-25T16:34:01.091Z,18.63
2023-01-25T16:36:29.729Z,20.55
2023-01-25T16:38:57.419Z,19.95
2023-01-25T16:41:25.339Z,20.27
2023-01-25T16:43:53.596Z,19.95
2023-01-25T16:46:24.372Z,20.42
2023-01-25T16:48:53.415Z,18.63
2023-01-25T16:51:23.055Z,20.17
2023-01-25T16:53:52.702Z,17.98
2023-01-25T16:56:22.844Z,19.30
2023-01-25T16:58:51.615Z,17.15
2023-01-25T17:01:22.776Z,17.95
2023-01-25T17:03:51.348Z,17.67
2023-01-25T17:06:20.965Z,18.55
2023-01-25T17:08:49.680Z,17.98
2023-01-25T17:11:20.122Z,16.52
2023-01-25T17:13:49.703Z,17.02
2023-01-25T17:16:17.645Z,17.42
2023-01-25T17:18:46.884Z,16.95
2023-01-25T17:21:16.851Z,16.65
2023-01-25T17:23:44.959Z,18.05
2023-01-25T17:26:15.463Z,15.70
2023-01-25T17:28:44.649Z,17.05
2023-01-25T17:31:17.464Z,17.42
2023-01-25T17:33:46.671Z,17.55
2023-01-25T17:36:15.211Z,16.35
2023-01-25T17:38:43.979Z,16.85
2023-01-25T17:41:13.806Z,17.33
2023-01-25T17:43:42.051Z,17.10
2023-01-25T17:46:13.619Z,16.17
2023-01-25T17:48:41.850Z,15.27
2023-01-25T17:51:10.988Z,18.45
2023-01-25T17:53:38.710Z,15.88
2023-01-25T17:56:08.506Z,17.70
2023-01-25T17:58:37.685Z,16.85
2023-01-25T18:01:14.182Z,17.00
2023-01-25T18:03:42.675Z,16.58
2023-01-25T18:06:12.472Z,15.90
2023-01-25T18:08:41.368Z,13.20
2023-01-25T18:11:10.402Z,15.68
2023-01-25T18:13:40.866Z,14.13
2023-01-25T18:16:09.920Z,14.48
2023-01-25T18:18:42.611Z,13.98
2023-01-25T18:21:14.083Z,13.85
2023-01-25T18:23:44.141Z,14.98
2023-01-25T18:26:17.852Z,15.27
2023-01-25T18:28:45.912Z,13.90
2023-01-25T18:31:15.623Z,14.65
2023-01-25T18:33:43.470Z,14.88
2023-01-25T18:36:15.239Z,14.80
2023-01-25T18:38:43.051Z,15.70
2023-01-25T18:41:10.866Z,14.57
2023-01-25T18:43:40.275Z,16.40
2023-01-25T18:46:08.270Z,17.55
2023-01-25T18:48:36.887Z,14.77
2023-01-25T18:51:07.948Z,15.88
2023-01-25T18:53:39.471Z,15.48
2023-01-25T18:56:09.409Z,14.88
2023-01-25T18:58:38.231Z,15.32
2023-01-25T19:01:08.836Z,13.82
2023-01-25T19:03:36.934Z,16.17
2023-01-25T19:06:05.642Z,16.17
2023-01-25T19:08:35.562Z,15.50
2023-01-25T19:11:06.941Z,14.57
2023-01-25T19:13:35.312Z,14.15
2023-01-25T19:16:06.341Z,13.00
2023-01-25T19:18:35.428Z,14.77
2023-01-25T19:21:03.700Z,14.02
2023-01-25T19:23:35.011Z,14.68
2023-01-25T19:26:04.644Z,14.80
2023-01-25T19:28:32.566Z,14.77
2023-01-25T19:31:07.165Z,15.43
2023-01-25T19:33:35.351Z,14.60
2023-01-25T19:36:05.238Z,14.80
2023-01-25T19:38:33.467Z,15.50
2023-01-25T19:41:07.134Z,14.27
2023-01-25T19:43:34.949Z,15.20
2023-01-25T19:46:10.611Z,15.07
2023-01-25T19:48:38.925Z,14.95
2023-01-25T19:51:11.832Z,15.65
2023-01-25T19:53:39.902Z,15.27
2023-01-25T19:56:09.583Z,15.95
2023-01-25T19:58:37.243Z,16.10
2023-01-25T20:01:08.975Z,16.67
2023-01-25T20:03:37.188Z,17.92
2023-01-25T20:06:07.032Z,16.58
2023-01-25T20:08:36.172Z,17.33
2023-01-25T20:11:05.970Z,15.50
2023-01-25T20:13:35.135Z,16.13
2023-01-25T20:16:03.215Z,16.08
2023-01-25T20:18:31.404Z,16.23
2023-01-25T20:21:00.979Z,16.33
2023-01-25T20:23:32.798Z,15.25
2023-01-25T20:26:02.716Z,17.20
2023-01-25T20:28:32.690Z,16.27
2023-01-25T20:31:03.959Z,16.00
2023-01-25T20:33:31.832Z,17.17
2023-01-25T20:36:00.964Z,16.83
2023-01-25T20:38:31.514Z,15.35
2023-01-25T20:41:00.125Z,15.43
2023-01-25T20:43:29.497Z,18.98
2023-01-25T20:45:57.590Z,18.00
2023-01-25T20:48:27.522Z,19.33
2023-01-25T20:51:01.750Z,19.13
2023-01-25T20:53:29.899Z,18.88
2023-01-25T20:55:58.564Z,19.10
2023-01-25T20:58:26.280Z,20.10
2023-01-25T21:00:54.209Z,18.60
2023-01-25T21:03:21.982Z,20.52
2023-01-25T21:05:51.930Z,18.98
2023-01-25T21:08:20.432Z,17.23
2023-01-25T21:10:49.468Z,18.67
2023-01-25T21:13:17.190Z,19.15
2023-01-25T21:15:44.822Z,19.65
2023-01-25T21:18:12.468Z,19.65
2023-01-25T21:20:40.149Z,19.65
2023-01-25T21:23:09.223Z,21.58
2023-01-25T21:25:36.926Z,19.92
2023-01-25T21:28:05.008Z,19.17
2023-01-25T21:30:32.746Z,17.58
2023-01-25T21:33:00.528Z,19.88
2023-01-25T21:35:29.568Z,19.80
2023-01-25T21:37:57.342Z,20.27
2023-01-25T21:40:26.521Z,21.20
2023-01-25T21:42:54.239Z,21.45
2023-01-25T21:45:39.701Z,20.25
2023-01-25T21:48:07.380Z,19.05
2023-01-25T21:50:52.848Z,20.52
2023-01-25T21:53:23.618Z,18.90
2023-01-25T21:55:57.658Z,20.23
2023-01-25T21:58:25.396Z,19.60
2023-01-25T22:00:53.146Z,19.38
2023-01-25T22:03:20.866Z,21.35
2023-01-25T22:05:54.977Z,20.45
2023-01-25T22:08:22.669Z,20.60
2023-01-25T22:10:50.347Z,20.20
2023-01-25T22:13:20.485Z,20.95
2023-01-25T22:15:48.248Z,20.10
2023-01-25T22:18:16.093Z,18.67
2023-01-25T22:20:43.796Z,18.27
2023-01-25T22:23:11.555Z,17.77
2023-01-25T22:25:39.206Z,18.10
2023-01-25T22:28:14.366Z,17.98
2023-01-25T22:30:43.632Z,18.40
2023-01-25T22:33:11.351Z,17.60
2023-01-25T22:35:39.037Z,19.90
2023-01-25T22:38:06.754Z,20.90
2023-01-25T22:40:34.493Z,20.55
2023-01-25T22:43:02.276Z,19.85
2023-01-25T22:45:29.971Z,20.30
2023-01-25T22:47:59.020Z,22.23
2023-01-25T22:50:27.518Z,22.10
2023-01-25T22:52:55.258Z,20.83
2023-01-25T22:55:23.005Z,21.95
2023-01-25T22:57:50.670Z,21.73
2023-01-25T23:00:19.364Z,19.85
2023-01-25T23:02:47.054Z,22.90
2023-01-25T23:05:16.285Z,27.00
2023-01-25T23:07:43.996Z,28.48
2023-01-25T23:10:12.961Z,26.05
2023-01-25T23:12:40.832Z,24.70
2023-01-25T23:15:15.358Z,26.33
2023-01-25T23:18:00.897Z,27.17
2023-01-25T23:20:31.247Z,28.45
2023-01-25T23:22:58.911Z,25.23
2023-01-25T23:25:27.473Z,27.23
2023-01-25T23:27:55.179Z,26.15
2023-01-25T23:30:22.976Z,26.40
2023-01-25T23:32:50.652Z,25.95
2023-01-25T23:35:19.329Z,23.80
2023-01-25T23:37:48.596Z,27.77
2023-01-25T23:40:17.060Z,26.00
2023-01-25T23:42:44.765Z,24.42
2023-01-25T23:45:12.957Z,24.42
2023-01-25T23:47:40.849Z,28.58
2023-01-25T23:50:10.138Z,25.23
2023-01-25T23:52:38.075Z,26.85
2023-01-25T23:55:08.991Z,25.35
2023-01-25T23:57:36.741Z,26.20
